createdAt,value
2018-02-06T00:00:56.148Z,0.13
2018-02-06T00:03:31.748Z,0.11
2018-02-06T00:06:06.954Z,0.08
2018-02-06T00:08:41.601Z,0.04
2018-02-06T00:11:16.110Z,0.05
2018-02-06T00:13:50.770Z,0.02
2018-02-06T00:16:25.862Z,0.05
2018-02-06T00:19:01.115Z,0.08
2018-02-06T00:21:35.801Z,0.03
2018-02-06T00:24:10.690Z,0.05
2018-02-06T00:26:45.754Z,0.00
2018-02-06T00:29:20.758Z,-0.02
2018-02-06T00:31:56.142Z,-0.10
2018-02-06T00:34:31.242Z,-0.14
2018-02-06T00:37:06.497Z,-0.15
2018-02-06T00:39:41.159Z,-0.19
2018-02-06T00:42:16.798Z,-0.21
2018-02-06T00:44:51.746Z,-0.27
2018-02-06T00:47:27.026Z,-0.28
2018-02-06T00:50:01.426Z,-0.24
2018-02-06T00:52:37.010Z,-0.23
2018-02-06T00:55:13.142Z,-0.23
2018-02-06T00:57:47.980Z,-0.26
2018-02-06T01:00:22.446Z,-0.21
2018-02-06T01:02:57.222Z,-0.16
2018-02-06T01:05:31.982Z,-0.19
2018-02-06T01:08:07.223Z,-0.21
2018-02-06T01:10:42.004Z,-0.24
2018-02-06T01:13:16.442Z,-0.29
2018-02-06T01:15:52.042Z,-0.27
2018-02-06T01:18:27.176Z,-0.24
2018-02-06T01:21:02.476Z,-0.30
2018-02-06T01:23:37.245Z,-0.27
2018-02-06T01:26:12.833Z,-0.30
2018-02-06T01:28:48.130Z,-0.28
2018-02-06T01:31:23.241Z,-0.28
2018-02-06T01:33:58.569Z,-0.28
2018-02-06T01:36:33.946Z,-0.21
2018-02-06T01:39:09.270Z,-0.15
2018-02-06T01:41:44.137Z,-0.17
2018-02-06T01:44:19.069Z,-0.25
2018-02-06T01:46:54.530Z,-0.33
2018-02-06T01:49:29.210Z,-0.35
2018-02-06T01:52:04.106Z,-0.48
2018-02-06T01:54:39.290Z,-0.40
2018-02-06T01:57:14.890Z,-0.43
2018-02-06T01:59:50.193Z,-0.46
2018-02-06T02:02:25.114Z,-0.49
2018-02-06T02:04:59.773Z,-0.49
2018-02-06T02:07:34.261Z,-0.44
2018-02-06T02:10:09.299Z,-0.42
2018-02-06T02:12:44.213Z,-0.35
2018-02-06T02:15:19.162Z,-0.29
2018-02-06T02:17:53.630Z,-0.24
2018-02-06T02:20:28.154Z,-0.22
2018-02-06T02:23:03.754Z,-0.18
2018-02-06T02:25:38.858Z,-0.16
2018-02-06T02:28:14.138Z,-0.13
2018-02-06T02:30:49.182Z,-0.20
2018-02-06T02:33:24.158Z,-0.24
2018-02-06T02:35:59.289Z,-0.26
2018-02-06T02:38:34.215Z,-0.25
2018-02-06T02:41:09.377Z,-0.25
2018-02-06T04:40:21.802Z,-1.19
2018-02-06T04:42:57.149Z,-1.30
2018-02-06T04:45:31.881Z,-1.31
2018-02-06T04:48:06.541Z,-1.38
2018-02-06T04:50:41.549Z,-1.42
2018-02-06T04:53:16.066Z,-1.34
2018-02-06T04:55:51.145Z,-1.35
2018-02-06T04:58:25.911Z,-1.25
2018-02-06T05:01:00.781Z,-1.19
2018-02-06T05:03:35.761Z,-1.19
2018-02-06T05:06:10.898Z,-1.19
2018-02-06T05:08:45.640Z,-1.17
2018-02-06T05:11:20.637Z,-1.18
2018-02-06T05:13:56.918Z,-1.20
2018-02-06T05:16:31.641Z,-1.18
2018-02-06T05:19:06.838Z,-1.19
2018-02-06T05:21:42.054Z,-1.19
2018-02-06T05:24:17.082Z,-1.25
2018-02-06T05:26:52.101Z,-1.27
2018-02-06T05:29:27.538Z,-1.30
2018-02-06T05:32:02.669Z,-1.36
2018-02-06T05:34:37.592Z,-1.40
2018-02-06T05:37:12.776Z,-1.35
2018-02-06T05:39:47.744Z,-1.39
2018-02-06T05:42:22.775Z,-1.45
2018-02-06T05:44:57.580Z,-1.44
2018-02-06T05:47:32.697Z,-1.41
2018-02-06T05:50:07.818Z,-1.38
2018-02-06T05:52:42.694Z,-1.41
2018-02-06T05:55:17.617Z,-1.39
2018-02-06T05:57:52.845Z,-1.40
2018-02-06T06:00:27.746Z,-1.39
2018-02-06T06:03:02.754Z,-1.47
2018-02-06T06:05:37.794Z,-1.46
2018-02-06T06:08:12.894Z,-1.47
2018-02-06T06:10:47.837Z,-1.49
2018-02-06T06:13:22.873Z,-1.54
2018-02-06T06:15:58.217Z,-1.62
2018-02-06T06:18:32.486Z,-1.64
2018-02-06T06:21:07.751Z,-1.64
2018-02-06T06:23:42.750Z,-1.60
2018-02-06T06:26:17.305Z,-1.60
2018-02-06T06:28:52.781Z,-1.58
2018-02-06T06:31:27.811Z,-1.58
2018-02-06T06:34:02.725Z,-1.59
2018-02-06T06:36:37.718Z,-1.59
2018-02-06T06:39:12.758Z,-1.60
2018-02-06T06:41:47.802Z,-1.62
2018-02-06T06:44:22.777Z,-1.66
2018-02-06T06:46:57.335Z,-1.70
2018-02-06T06:49:32.261Z,-1.81
2018-02-06T06:52:07.290Z,-1.84
2018-02-06T06:54:42.326Z,-1.94
2018-02-06T06:57:17.642Z,-1.95
2018-02-06T06:59:52.221Z,-1.90
2018-02-06T07:02:27.184Z,-1.89
2018-02-06T07:05:02.157Z,-1.91
2018-02-06T07:07:37.036Z,-2.08
2018-02-06T07:10:11.598Z,-2.23
2018-02-06T07:12:46.702Z,-2.23
2018-02-06T07:15:21.363Z,-2.15
2018-02-06T07:17:57.226Z,-2.19
2018-02-06T07:20:32.291Z,-2.23
2018-02-06T07:23:07.317Z,-2.22
2018-02-06T07:25:42.130Z,-2.19
2018-02-06T07:28:17.747Z,-2.09
2018-02-06T07:30:52.884Z,-2.01
2018-02-06T07:33:27.410Z,-1.95
2018-02-06T07:36:02.580Z,-1.92
2018-02-06T07:38:37.223Z,-1.97
2018-02-06T07:41:12.119Z,-2.07
2018-02-06T07:43:46.999Z,-2.07
2018-02-06T07:46:22.014Z,-1.99
2018-02-06T07:48:57.418Z,-1.92
2018-02-06T07:51:32.157Z,-1.84
2018-02-06T07:54:07.020Z,-1.73
2018-02-06T07:56:42.068Z,-1.65
2018-02-06T07:59:16.990Z,-1.55
2018-02-06T08:01:51.615Z,-1.52
2018-02-06T08:04:26.626Z,-1.44
2018-02-06T08:07:02.016Z,-1.32
2018-02-06T08:09:37.091Z,-1.24
2018-02-06T08:12:12.152Z,-1.19
2018-02-06T08:14:47.117Z,-1.18
2018-02-06T08:17:21.950Z,-1.09
2018-02-06T08:19:57.462Z,-0.84
2018-02-06T08:22:33.217Z,-0.64
2018-02-06T08:25:08.594Z,-0.70
2018-02-06T08:27:43.222Z,-0.60
2018-02-06T08:30:18.150Z,-0.42
2018-02-06T08:32:53.474Z,-0.25
2018-02-06T08:35:28.315Z,-0.32
2018-02-06T08:38:03.454Z,-0.22
2018-02-06T08:40:38.671Z,-0.09
2018-02-06T08:43:13.606Z,0.03
2018-02-06T08:45:48.693Z,0.17
2018-02-06T08:48:24.129Z,0.27
2018-02-06T08:50:59.482Z,0.25
2018-02-06T08:53:33.932Z,0.20
2018-02-06T08:56:09.471Z,0.18
2018-02-06T08:58:44.331Z,0.30
2018-02-06T09:01:19.342Z,0.50
2018-02-06T09:03:54.321Z,0.69
2018-02-06T09:06:29.202Z,0.82
2018-02-06T09:09:03.809Z,0.84
2018-02-06T09:11:39.326Z,0.70
2018-02-06T09:14:14.346Z,0.65
2018-02-06T09:16:49.343Z,0.55
2018-02-06T09:19:24.413Z,0.72
2018-02-06T09:21:59.668Z,1.03
2018-02-06T09:24:34.359Z,1.25
2018-02-06T09:27:09.659Z,1.37
2018-02-06T09:29:44.470Z,1.34
2018-02-06T09:32:19.498Z,1.44
2018-02-06T09:34:54.370Z,1.54
2018-02-06T09:37:29.443Z,1.62
2018-02-06T09:40:04.618Z,1.69
2018-02-06T09:42:39.834Z,1.57
2018-02-06T09:45:14.622Z,1.33
2018-02-06T09:47:49.526Z,1.55
2018-02-06T09:50:23.926Z,1.80
2018-02-06T09:52:59.440Z,1.92
2018-02-06T09:55:34.495Z,1.76
2018-02-06T09:58:09.379Z,1.49
2018-02-06T10:00:44.374Z,1.73
2018-02-06T10:03:19.364Z,1.82
2018-02-06T10:05:54.066Z,1.91
2018-02-06T10:08:28.959Z,1.82
2018-02-06T10:11:03.833Z,1.79
2018-02-06T10:13:38.914Z,1.83
2018-02-06T10:16:13.826Z,1.87
2018-02-06T10:18:48.948Z,1.96
2018-02-06T10:21:23.679Z,2.24
2018-02-06T10:23:59.459Z,2.41
2018-02-06T10:26:34.551Z,2.62
2018-02-06T10:29:09.454Z,2.27
2018-02-06T10:31:44.417Z,2.37
2018-02-06T10:34:19.539Z,2.34
2018-02-06T10:36:54.297Z,2.19
2018-02-06T10:39:29.521Z,2.17
2018-02-06T10:42:04.525Z,2.34
2018-02-06T10:44:39.178Z,2.73
2018-02-06T10:47:13.935Z,2.98
2018-02-06T10:49:48.915Z,3.00
2018-02-06T10:52:23.738Z,2.89
2018-02-06T10:54:58.449Z,2.87
2018-02-06T10:57:33.619Z,2.98
2018-02-06T11:00:08.660Z,3.00
2018-02-06T11:02:43.169Z,3.19
2018-02-06T11:05:18.028Z,3.44
2018-02-06T11:07:53.050Z,3.40
2018-02-06T11:10:27.507Z,3.35
2018-02-06T11:13:02.661Z,3.46
2018-02-06T11:15:37.799Z,3.64
2018-02-06T11:18:12.807Z,3.78
2018-02-06T11:20:47.694Z,3.95
2018-02-06T11:23:22.132Z,4.14
2018-02-06T11:25:57.995Z,4.44
2018-02-06T11:28:33.565Z,4.58
2018-02-06T11:31:08.222Z,4.67
2018-02-06T11:33:43.215Z,4.55
2018-02-06T11:36:18.210Z,4.53
2018-02-06T11:38:53.154Z,4.41
2018-02-06T11:41:28.214Z,4.52
2018-02-06T11:44:03.925Z,4.54
2018-02-06T11:46:38.829Z,4.38
2018-02-06T11:49:13.822Z,4.29
2018-02-06T11:51:48.822Z,4.28
2018-02-06T11:54:23.802Z,4.18
2018-02-06T11:56:58.335Z,3.91
2018-02-06T11:59:32.985Z,3.59
2018-02-06T12:02:08.110Z,3.57
2018-02-06T12:04:42.758Z,3.60
2018-02-06T12:07:17.260Z,3.94
2018-02-06T12:09:51.816Z,4.08
2018-02-06T12:12:26.902Z,4.32
2018-02-06T12:15:02.082Z,4.40
2018-02-06T12:17:36.945Z,4.00
2018-02-06T12:20:11.348Z,3.92
2018-02-06T12:22:46.943Z,3.88
2018-02-06T12:25:21.417Z,3.84
2018-02-06T12:27:56.106Z,3.85
2018-02-06T12:30:31.026Z,3.82
2018-02-06T12:33:06.179Z,3.91
2018-02-06T12:35:40.917Z,4.08
2018-02-06T12:38:15.918Z,4.15
2018-02-06T12:40:50.825Z,3.89
2018-02-06T12:43:25.835Z,3.73
2018-02-06T12:46:00.914Z,3.78
2018-02-06T12:48:36.031Z,3.84
2018-02-06T12:51:10.913Z,3.82
2018-02-06T12:53:45.550Z,3.94
2018-02-06T12:56:20.758Z,3.93
2018-02-06T12:58:55.406Z,3.93
2018-02-06T13:01:30.510Z,3.57
2018-02-06T13:04:05.889Z,3.36
2018-02-06T13:06:40.951Z,3.29
2018-02-06T13:09:16.165Z,3.40
2018-02-06T13:11:51.374Z,3.34
2018-02-06T13:14:26.224Z,3.35
2018-02-06T13:17:01.593Z,3.44
2018-02-06T13:19:36.403Z,3.49
2018-02-06T13:22:11.082Z,3.55
2018-02-06T13:24:45.983Z,3.33
2018-02-06T13:27:21.090Z,3.23
2018-02-06T13:29:56.174Z,3.11
2018-02-06T13:32:31.182Z,3.16
2018-02-06T13:35:06.124Z,3.11
2018-02-06T13:37:41.011Z,3.12
2018-02-06T13:40:15.497Z,3.24
2018-02-06T13:42:50.380Z,3.40
2018-02-06T13:45:25.335Z,3.06
2018-02-06T13:48:00.359Z,2.88
2018-02-06T13:50:35.227Z,3.04
2018-02-06T13:53:10.434Z,3.10
2018-02-06T13:55:45.298Z,3.16
2018-02-06T13:58:20.267Z,3.10
2018-02-06T14:00:55.207Z,2.85
2018-02-06T14:03:30.388Z,2.73
2018-02-06T14:06:04.821Z,2.60
2018-02-06T14:08:39.946Z,2.43
2018-02-06T14:11:14.635Z,2.32
2018-02-06T14:13:49.501Z,2.23
2018-02-06T14:16:24.656Z,2.19
2018-02-06T14:19:00.064Z,2.19
2018-02-06T14:21:34.698Z,2.41
2018-02-06T14:24:09.926Z,2.71
2018-02-06T14:26:44.677Z,2.86
2018-02-06T14:29:19.536Z,2.70
2018-02-06T14:31:54.738Z,2.69
2018-02-06T14:34:29.710Z,2.78
2018-02-06T14:37:04.554Z,2.55
2018-02-06T14:39:39.661Z,2.31
2018-02-06T14:42:14.572Z,2.18
2018-02-06T14:44:49.438Z,2.15
2018-02-06T14:47:24.206Z,2.06
2018-02-06T14:49:58.910Z,2.04
2018-02-06T14:52:34.898Z,2.18
2018-02-06T14:55:09.759Z,2.17
2018-02-06T14:57:44.454Z,2.18
2018-02-06T15:00:19.429Z,2.21
2018-02-06T15:02:54.486Z,2.21
2018-02-06T15:05:29.806Z,2.25
2018-02-06T15:08:05.378Z,2.37
2018-02-06T15:10:40.371Z,2.39
2018-02-06T15:13:15.266Z,2.20
2018-02-06T15:15:49.909Z,2.17
2018-02-06T15:18:25.261Z,2.19
2018-02-06T15:21:00.638Z,2.26
2018-02-06T15:23:35.333Z,2.14
2018-02-06T15:26:10.529Z,2.04
2018-02-06T15:28:45.519Z,2.08
2018-02-06T15:31:20.761Z,2.20
2018-02-06T15:33:55.766Z,2.09
2018-02-06T15:36:30.717Z,1.59
2018-02-06T15:39:05.510Z,1.54
2018-02-06T15:41:40.169Z,1.60
2018-02-06T15:44:14.956Z,1.64
2018-02-06T15:46:49.818Z,1.75
2018-02-06T15:49:25.396Z,1.83
2018-02-06T15:52:00.477Z,1.89
2018-02-06T15:54:35.516Z,1.96
2018-02-06T15:57:10.670Z,1.99
2018-02-06T15:59:45.550Z,1.84
2018-02-06T16:02:20.346Z,1.79
2018-02-06T16:04:55.548Z,1.88
2018-02-06T16:07:30.521Z,1.91
2018-02-06T16:10:05.077Z,2.07
2018-02-06T16:12:40.540Z,2.11
2018-02-06T16:15:15.614Z,1.99
2018-02-06T16:17:50.474Z,1.93
2018-02-06T16:20:25.506Z,1.93
2018-02-06T16:23:00.554Z,1.83
2018-02-06T16:25:35.728Z,1.80
2018-02-06T16:28:10.745Z,1.76
2018-02-06T16:30:45.803Z,1.76
2018-02-06T16:33:20.605Z,1.67
2018-02-06T16:35:55.491Z,1.70
2018-02-06T16:38:29.818Z,1.65
2018-02-06T16:41:04.808Z,1.59
2018-02-06T16:43:39.913Z,1.53
2018-02-06T16:46:15.183Z,1.39
2018-02-06T16:48:49.902Z,1.36
2018-02-06T16:51:24.786Z,1.30
2018-02-06T16:53:59.851Z,1.21
2018-02-06T16:56:34.606Z,1.28
2018-02-06T16:59:09.782Z,1.25
2018-02-06T17:01:44.681Z,1.18
2018-02-06T17:04:19.593Z,1.24
2018-02-06T17:06:54.574Z,1.41
2018-02-06T17:09:29.729Z,1.49
2018-02-06T17:12:04.693Z,1.54
2018-02-06T17:14:39.541Z,1.48
2018-02-06T17:17:14.562Z,1.39
2018-02-06T17:19:49.744Z,1.31
2018-02-06T17:22:24.962Z,1.21
2018-02-06T17:24:59.974Z,1.13
2018-02-06T17:27:34.951Z,1.08
2018-02-06T17:30:10.187Z,1.09
2018-02-06T17:32:45.666Z,1.14
2018-02-06T17:35:20.719Z,1.23
2018-02-06T17:37:55.876Z,1.19
2018-02-06T17:40:30.897Z,1.18
2018-02-06T17:43:05.886Z,1.19
2018-02-06T17:45:40.866Z,1.06
2018-02-06T17:48:16.054Z,1.07
2018-02-06T17:50:50.710Z,1.01
2018-02-06T17:53:25.473Z,0.83
2018-02-06T17:56:00.969Z,0.73
2018-02-06T17:58:35.918Z,0.69
2018-02-06T18:01:10.706Z,0.66
2018-02-06T18:03:45.893Z,0.68
2018-02-06T18:06:20.810Z,0.71
2018-02-06T18:08:55.914Z,0.76
2018-02-06T18:11:30.970Z,0.73
2018-02-06T18:14:06.313Z,0.80
2018-02-06T18:16:41.249Z,0.86
2018-02-06T18:19:16.210Z,0.96
2018-02-06T18:21:51.082Z,0.89
2018-02-06T18:24:25.976Z,0.89
2018-02-06T18:27:01.117Z,0.84
2018-02-06T18:29:35.932Z,0.83
2018-02-06T18:32:11.117Z,0.79
2018-02-06T18:34:45.974Z,0.90
2018-02-06T18:37:21.202Z,0.91
2018-02-06T18:39:56.169Z,0.99
2018-02-06T18:42:31.182Z,1.05
2018-02-06T18:45:06.210Z,1.07
2018-02-06T18:47:41.065Z,1.09
2018-02-06T18:50:16.386Z,1.12
2018-02-06T18:52:50.813Z,1.17
2018-02-06T18:55:25.366Z,1.23
2018-02-06T18:58:00.492Z,1.22
2018-02-06T19:00:35.942Z,1.22
2018-02-06T19:03:11.154Z,1.23
2018-02-06T19:05:46.230Z,1.27
2018-02-06T19:08:21.238Z,1.32
2018-02-06T19:10:56.150Z,1.48
2018-02-06T19:13:31.034Z,1.59
2018-02-06T19:16:06.258Z,1.60
2018-02-06T19:18:41.030Z,1.57
2018-02-06T19:21:15.915Z,1.57
2018-02-06T19:23:51.090Z,1.58
2018-02-06T19:26:26.118Z,1.61
2018-02-06T19:29:01.142Z,1.54
2018-02-06T19:31:35.955Z,1.53
2018-02-06T19:34:11.290Z,1.52
2018-02-06T19:36:46.400Z,1.51
2018-02-06T19:39:21.246Z,1.49
2018-02-06T19:41:56.170Z,1.44
2018-02-06T19:44:31.162Z,1.43
2018-02-06T19:47:06.243Z,1.42
2018-02-06T19:49:41.018Z,1.43
2018-02-06T19:52:16.142Z,1.45
2018-02-06T19:54:51.274Z,1.33
2018-02-06T19:57:26.341Z,1.27
2018-02-06T20:00:01.874Z,1.27
2018-02-06T20:02:37.071Z,1.21
2018-02-06T20:05:12.382Z,1.14
2018-02-06T20:07:47.238Z,1.11
2018-02-06T20:10:22.149Z,1.00
2018-02-06T20:12:57.171Z,0.93
2018-02-06T20:15:32.179Z,0.89
2018-02-06T20:18:07.342Z,0.86
2018-02-06T20:20:42.343Z,0.88
2018-02-06T20:23:17.318Z,0.82
2018-02-06T20:25:52.433Z,0.57
2018-02-06T20:28:27.718Z,0.75
2018-02-06T20:31:02.309Z,0.71
2018-02-06T20:33:36.713Z,0.71
2018-02-06T20:36:12.236Z,0.74
2018-02-06T20:38:46.615Z,0.77
2018-02-06T20:41:21.601Z,0.70
2018-02-06T20:43:56.646Z,0.65
2018-02-06T20:46:32.233Z,0.65
2018-02-06T20:49:06.401Z,0.69
2018-02-06T20:51:41.646Z,0.64
2018-02-06T20:54:16.798Z,0.71
2018-02-06T20:56:52.218Z,0.75
2018-02-06T20:59:27.162Z,0.80
2018-02-06T21:02:02.278Z,0.73
2018-02-06T21:04:37.230Z,0.75
2018-02-06T21:07:12.234Z,0.81
2018-02-06T21:09:47.240Z,0.86
2018-02-06T21:12:22.262Z,0.90
2018-02-06T21:14:57.302Z,0.78
2018-02-06T21:17:33.781Z,0.79
2018-02-06T21:20:09.514Z,0.73
2018-02-06T21:22:44.270Z,0.74
2018-02-06T21:25:19.283Z,0.78
2018-02-06T21:27:53.662Z,0.81
2018-02-06T21:30:28.484Z,0.83
2018-02-06T21:33:03.614Z,0.87
2018-02-06T21:35:38.362Z,0.84
2018-02-06T21:38:13.321Z,0.78
2018-02-06T21:40:48.269Z,0.70
2018-02-06T21:43:23.350Z,0.70
2018-02-06T21:45:59.665Z,0.72
2018-02-06T21:48:34.364Z,0.73
2018-02-06T21:51:09.478Z,0.79
2018-02-06T21:53:44.446Z,0.85
2018-02-06T21:56:19.397Z,0.90
2018-02-06T21:58:54.439Z,0.96
2018-02-06T22:01:29.355Z,0.99
2018-02-06T22:04:03.845Z,1.02
2018-02-06T22:06:40.106Z,1.05
2018-02-06T22:09:15.682Z,1.04
2018-02-06T22:11:50.708Z,1.00
2018-02-06T22:14:25.493Z,0.96
2018-02-06T22:17:00.591Z,0.88
2018-02-06T22:19:35.473Z,0.88
2018-02-06T22:22:10.866Z,0.90
2018-02-06T22:24:45.637Z,0.86
2018-02-06T22:27:20.629Z,0.81
2018-02-06T22:29:55.625Z,0.79
2018-02-06T22:32:30.518Z,0.82
2018-02-06T22:35:05.569Z,0.83
2018-02-06T22:37:40.700Z,0.87
2018-02-06T22:40:15.809Z,0.92
2018-02-06T22:42:50.538Z,0.90
2018-02-06T22:45:25.574Z,0.89
2018-02-06T22:48:00.685Z,0.93
2018-02-06T22:50:35.707Z,0.93
2018-02-06T22:53:10.801Z,0.89
2018-02-06T22:55:46.017Z,0.85
2018-02-06T22:58:20.953Z,0.78
2018-02-06T23:00:55.886Z,0.74
2018-02-06T23:03:31.093Z,0.77
2018-02-06T23:06:05.536Z,0.77
2018-02-06T23:08:40.657Z,0.78
2018-02-06T23:11:15.313Z,0.74
2018-02-06T23:13:50.477Z,0.71
2018-02-06T23:16:25.208Z,0.64
2018-02-06T23:19:00.206Z,0.64
2018-02-06T23:21:35.105Z,0.67
2018-02-06T23:24:09.937Z,0.67
2018-02-06T23:26:46.201Z,0.61
2018-02-06T23:29:21.103Z,0.62
2018-02-06T23:31:56.189Z,0.64
2018-02-06T23:34:31.507Z,0.59
2018-02-06T23:37:06.502Z,0.55
2018-02-06T23:39:41.986Z,0.54
2018-02-06T23:42:17.015Z,0.48
2018-02-06T23:44:52.128Z,0.45
2018-02-06T23:47:26.981Z,0.46
2018-02-06T23:50:02.193Z,0.42
2018-02-06T23:52:37.213Z,0.39
2018-02-06T23:55:12.098Z,0.36
2018-02-06T23:57:47.314Z,0.37
